Terminal Aerodrome Forecast
Issued by NWS

Current Version | Previous Version | Graphics & Text | Print | Product List | Glossary On
Versions: 1 2 3 4 5 6 7 8 9 10 11 12 13 14 15 16 17 18 19 20 21 22 23
000
FTUS41 KRLX 260946 AAA
TAFCKB
TAF AMD
KCKB 260946Z 2610/2706 00000KT 2SM BR SCT001
      TEMPO 2610/2612 1/4SM FG VV001
     FM261200 00000KT P6SM BKN050
     FM261600 31004KT P6SM BKN040
     FM270000 00000KT P6SM BKN045=

USA.gov is the U.S. government's official web portal to all federal, state and local government web resources and services.